ADDS TAF Board (Experimental) INFO Settings
IDs: Format: Expanded Condensed

KCLT - Charlotte/Douglas In, NC, US

Issued at 0537 UTC 07 Jul 2015
Updated at: 0855 UTC 07 Jul 2015
Time0852Z 07/09Z 07/10Z 07/11Z 07/12Z 07/13Z 07/14Z 07/15Z 07/16Z 07/17Z 07/18Z 07/19Z 07/20Z 07/21Z
Type OBS PRVL PRVL PRVL PRVL PRVL PRVL PRVL PRVL PRVL PRVL PRVL PRVL PRVL
VIS 9 >6 >6 >6 >6 >6 >6 >6 >6 >6 >6 >6 >6 >6
CIG -- -- -- -- -- -- -- -- -- -- -- -- -- --
Cover CLR FEW FEW FEW FEW FEW FEW FEW FEW FEW FEW SCT SCT SCT
FltCat VFR VFR VFR VFR VFR VFR VFR VFR VFR VFR VFR VFR VFR VFR
WX -- -- -- -- -- -- -- -- -- -- -- -- -- --
WDir 150 200 200 200 200 200 220 220 220 220 220 200 200 200
WSpd 3 3 3 3 3 3 5 5 5 5 5 7 7 7
WGst -- -- -- -- -- -- -- -- -- -- -- -- -- --
R05/23
XWnd -3 -1 -1 -1 -1 -1 -1 -1 -1 -1 -1 -3 -3 -3
HWnd -1 -3 -3 -3 -3 -3 -5 -5 -5 -5 -5 -6 -6 -6
R18/36
XWnd 1 -1 -1 -1 -1 -1 -3 -3 -3 -3 -3 -3 -3 -3
HWnd 3 3 3 3 3 3 4 4 4 4 4 6 6 6

NOTE: TEMPO conditions in [brackets]. Keep in mind TEMPO conditions might be better (lower impact) than prevailing conditions.

Raw TAF
KCLT 070537Z 0706/0806 20003KT P6SM FEW250
  FM071400 22005KT P6SM FEW040
  FM071900 20007KT P6SM SCT050
  FM080200 18005KT P6SM FEW250


Raw METAR
KCLT 070852Z 15003KT 9SM CLR 22/19 A3010 RMK AO2 SLP181 T02170194 58005
KCLT 070752Z 00000KT 9SM CLR 23/20 A3010 RMK AO2 SLP183 T02280200
KCLT 070652Z 00000KT 10SM BKN040 BKN250 23/20 A3011 RMK AO2 SLP186 T02330200
KCLT 070552Z 00000KT 10SM FEW250 23/20 A3011 RMK AO2 SLP187 T02330200 10300 20228 53008

METAR Board
Radar Display
Forecast Discussion

TAF Board Legend

Potential Impact
Threat None Slight Moderate High
Visibility (sm) ≥5.1 5.1>X≥3 3>X≥1 <1
Ceiling (100 ft) ≥30.1 30.1>X≥10 10>X≥5 <5
Wind Speed (kt) <10 10≤X<20 20≤X<30 ≥30
Wind Gust (kt) <15 15≤X<25 25≤X<35 ≥35
Weather No Wx Reported VCTS,-TS,-FZRA,SN TS,FZRA +TS,+FZRA,+SN